sensor_id;sensor_type;location;lat;lon;timestamp;P1;durP1;ratioP1;P2;durP2;ratioP2
26319;SDS011;14024;52.226;5.200;2023-07-31T00:00:29;5.50;;;2.03;;
26319;SDS011;14024;52.226;5.200;2023-07-31T00:02:55;3.10;;;2.15;;
26319;SDS011;14024;52.226;5.200;2023-07-31T00:05:21;4.38;;;2.13;;
26319;SDS011;14024;52.226;5.200;2023-07-31T00:07:47;7.38;;;2.28;;
26319;SDS011;14024;52.226;5.200;2023-07-31T00:10:13;5.68;;;2.42;;
26319;SDS011;14024;52.226;5.200;2023-07-31T00:12:41;5.60;;;2.53;;
26319;SDS011;14024;52.226;5.200;2023-07-31T00:15:07;9.38;;;3.20;;
26319;SDS011;14024;52.226;5.200;2023-07-31T00:17:34;6.78;;;2.75;;
26319;SDS011;14024;52.226;5.200;2023-07-31T00:20:00;8.88;;;3.13;;
26319;SDS011;14024;52.226;5.200;2023-07-31T00:22:26;8.90;;;3.08;;
26319;SDS011;14024;52.226;5.200;2023-07-31T00:24:52;9.98;;;4.07;;
26319;SDS011;14024;52.226;5.200;2023-07-31T00:27:18;4.78;;;2.53;;
26319;SDS011;14024;52.226;5.200;2023-07-31T00:29:44;6.65;;;2.85;;
26319;SDS011;14024;52.226;5.200;2023-07-31T00:32:09;9.93;;;3.47;;
26319;SDS011;14024;52.226;5.200;2023-07-31T00:34:37;5.75;;;3.00;;
26319;SDS011;14024;52.226;5.200;2023-07-31T00:37:05;11.63;;;4.60;;
26319;SDS011;14024;52.226;5.200;2023-07-31T00:39:33;20.85;;;5.97;;
26319;SDS011;14024;52.226;5.200;2023-07-31T00:42:00;16.02;;;5.50;;
26319;SDS011;14024;52.226;5.200;2023-07-31T00:44:26;24.73;;;6.75;;
26319;SDS011;14024;52.226;5.200;2023-07-31T00:46:53;24.15;;;7.47;;
26319;SDS011;14024;52.226;5.200;2023-07-31T00:49:20;38.63;;;9.75;;
26319;SDS011;14024;52.226;5.200;2023-07-31T00:51:46;38.42;;;9.00;;
26319;SDS011;14024;52.226;5.200;2023-07-31T00:54:12;26.27;;;7.32;;
26319;SDS011;14024;52.226;5.200;2023-07-31T00:56:38;26.85;;;7.07;;
26319;SDS011;14024;52.226;5.200;2023-07-31T00:59:06;26.13;;;7.40;;
26319;SDS011;14024;52.226;5.200;2023-07-31T01:01:32;20.13;;;6.53;;
26319;SDS011;14024;52.226;5.200;2023-07-31T01:03:59;21.95;;;6.32;;
26319;SDS011;14024;52.226;5.200;2023-07-31T01:08:58;16.23;;;4.80;;
26319;SDS011;14024;52.226;5.200;2023-07-31T01:11:29;13.18;;;4.15;;
26319;SDS011;14024;52.226;5.200;2023-07-31T01:13:56;14.95;;;5.00;;
26319;SDS011;14024;52.226;5.200;2023-07-31T01:16:22;15.13;;;4.38;;
26319;SDS011;14024;52.226;5.200;2023-07-31T01:18:48;15.60;;;4.10;;
26319;SDS011;14024;52.226;5.200;2023-07-31T01:21:21;12.75;;;4.30;;
26319;SDS011;14024;52.226;5.200;2023-07-31T01:23:51;11.77;;;3.95;;
26319;SDS011;14024;52.226;5.200;2023-07-31T01:31:26;12.73;;;4.30;;
26319;SDS011;14024;52.226;5.200;2023-07-31T01:33:54;16.40;;;5.43;;
26319;SDS011;14024;52.226;5.200;2023-07-31T01:36:22;12.48;;;4.22;;
26319;SDS011;14024;52.226;5.200;2023-07-31T01:38:48;16.63;;;4.50;;
26319;SDS011;14024;52.226;5.200;2023-07-31T01:41:18;11.27;;;4.45;;
26319;SDS011;14024;52.226;5.200;2023-07-31T01:43:45;16.42;;;5.07;;
26319;SDS011;14024;52.226;5.200;2023-07-31T01:46:11;11.23;;;3.95;;
26319;SDS011;14024;52.226;5.200;2023-07-31T01:48:37;14.13;;;4.47;;
26319;SDS011;14024;52.226;5.200;2023-07-31T01:51:03;15.07;;;4.82;;
26319;SDS011;14024;52.226;5.200;2023-07-31T01:53:30;19.42;;;6.10;;
26319;SDS011;14024;52.226;5.200;2023-07-31T01:55:56;24.55;;;7.88;;
26319;SDS011;14024;52.226;5.200;2023-07-31T01:58:22;23.42;;;7.15;;
26319;SDS011;14024;52.226;5.200;2023-07-31T02:00:51;28.42;;;8.48;;
26319;SDS011;14024;52.226;5.200;2023-07-31T02:03:17;34.40;;;10.98;;
26319;SDS011;14024;52.226;5.200;2023-07-31T02:05:44;38.50;;;9.90;;
26319;SDS011;14024;52.226;5.200;2023-07-31T02:08:10;32.83;;;9.52;;
26319;SDS011;14024;52.226;5.200;2023-07-31T02:10:36;33.15;;;9.27;;
26319;SDS011;14024;52.226;5.200;2023-07-31T02:13:02;41.28;;;9.30;;
26319;SDS011;14024;52.226;5.200;2023-07-31T02:15:29;41.58;;;10.32;;
26319;SDS011;14024;52.226;5.200;2023-07-31T02:17:55;33.47;;;8.75;;
26319;SDS011;14024;52.226;5.200;2023-07-31T02:20:21;32.50;;;8.98;;
26319;SDS011;14024;52.226;5.200;2023-07-31T02:22:47;39.83;;;10.55;;
26319;SDS011;14024;52.226;5.200;2023-07-31T02:25:13;42.60;;;10.68;;
26319;SDS011;14024;52.226;5.200;2023-07-31T02:27:39;27.92;;;8.88;;
26319;SDS011;14024;52.226;5.200;2023-07-31T02:30:06;34.13;;;8.55;;
26319;SDS011;14024;52.226;5.200;2023-07-31T02:32:32;35.83;;;8.75;;
26319;SDS011;14024;52.226;5.200;2023-07-31T02:34:58;31.20;;;10.07;;
26319;SDS011;14024;52.226;5.200;2023-07-31T02:37:24;35.47;;;8.80;;
26319;SDS011;14024;52.226;5.200;2023-07-31T02:39:51;33.38;;;9.40;;
26319;SDS011;14024;52.226;5.200;2023-07-31T02:42:17;36.95;;;9.57;;
26319;SDS011;14024;52.226;5.200;2023-07-31T02:44:43;60.75;;;10.93;;
26319;SDS011;14024;52.226;5.200;2023-07-31T02:47:09;39.35;;;10.65;;
26319;SDS011;14024;52.226;5.200;2023-07-31T02:49:35;39.75;;;9.95;;
26319;SDS011;14024;52.226;5.200;2023-07-31T02:52:01;46.05;;;9.82;;
26319;SDS011;14024;52.226;5.200;2023-07-31T02:54:27;41.03;;;10.35;;
26319;SDS011;14024;52.226;5.200;2023-07-31T02:56:53;42.10;;;9.02;;
26319;SDS011;14024;52.226;5.200;2023-07-31T02:59:19;45.40;;;10.75;;
26319;SDS011;14024;52.226;5.200;2023-07-31T03:01:45;48.17;;;10.68;;
26319;SDS011;14024;52.226;5.200;2023-07-31T03:04:11;48.38;;;12.32;;
26319;SDS011;14024;52.226;5.200;2023-07-31T03:06:37;45.72;;;10.30;;
26319;SDS011;14024;52.226;5.200;2023-07-31T03:09:03;41.15;;;10.18;;
26319;SDS011;14024;52.226;5.200;2023-07-31T03:11:29;46.50;;;10.38;;
26319;SDS011;14024;52.226;5.200;2023-07-31T03:13:55;49.35;;;10.25;;
26319;SDS011;14024;52.226;5.200;2023-07-31T03:16:21;45.55;;;11.20;;
26319;SDS011;14024;52.226;5.200;2023-07-31T03:18:47;37.70;;;9.70;;
26319;SDS011;14024;52.226;5.200;2023-07-31T03:21:14;37.85;;;10.98;;
26319;SDS011;14024;52.226;5.200;2023-07-31T03:23:40;41.17;;;9.65;;
26319;SDS011;14024;52.226;5.200;2023-07-31T03:26:07;40.83;;;10.48;;
26319;SDS011;14024;52.226;5.200;2023-07-31T03:28:33;49.80;;;11.63;;
26319;SDS011;14024;52.226;5.200;2023-07-31T03:30:59;46.38;;;10.38;;
26319;SDS011;14024;52.226;5.200;2023-07-31T03:33:25;43.92;;;11.45;;
26319;SDS011;14024;52.226;5.200;2023-07-31T03:35:51;31.95;;;9.68;;
26319;SDS011;14024;52.226;5.200;2023-07-31T03:38:17;43.22;;;11.32;;
26319;SDS011;14024;52.226;5.200;2023-07-31T03:40:43;30.30;;;10.23;;
26319;SDS011;14024;52.226;5.200;2023-07-31T03:43:09;37.10;;;10.23;;
26319;SDS011;14024;52.226;5.200;2023-07-31T03:45:35;37.20;;;8.90;;
26319;SDS011;14024;52.226;5.200;2023-07-31T03:48:01;38.70;;;9.88;;
26319;SDS011;14024;52.226;5.200;2023-07-31T03:50:27;36.58;;;9.50;;
26319;SDS011;14024;52.226;5.200;2023-07-31T03:52:53;36.42;;;9.77;;
26319;SDS011;14024;52.226;5.200;2023-07-31T03:55:19;35.20;;;9.77;;
26319;SDS011;14024;52.226;5.200;2023-07-31T03:57:46;31.33;;;8.25;;
26319;SDS011;14024;52.226;5.200;2023-07-31T04:00:13;37.85;;;9.98;;
26319;SDS011;14024;52.226;5.200;2023-07-31T04:02:39;34.67;;;8.80;;
26319;SDS011;14024;52.226;5.200;2023-07-31T04:05:05;35.95;;;8.75;;
26319;SDS011;14024;52.226;5.200;2023-07-31T04:07:31;39.88;;;9.55;;
26319;SDS011;14024;52.226;5.200;2023-07-31T04:09:57;35.10;;;8.93;;
26319;SDS011;14024;52.226;5.200;2023-07-31T04:12:23;31.08;;;9.15;;
26319;SDS011;14024;52.226;5.200;2023-07-31T04:14:49;33.92;;;8.43;;
26319;SDS011;14024;52.226;5.200;2023-07-31T04:17:15;34.75;;;9.55;;
26319;SDS011;14024;52.226;5.200;2023-07-31T04:19:41;31.08;;;9.40;;
26319;SDS011;14024;52.226;5.200;2023-07-31T04:22:07;30.70;;;9.40;;
26319;SDS011;14024;52.226;5.200;2023-07-31T04:24:33;31.02;;;8.70;;
26319;SDS011;14024;52.226;5.200;2023-07-31T04:26:59;34.67;;;9.05;;
26319;SDS011;14024;52.226;5.200;2023-07-31T04:29:25;28.50;;;9.90;;
26319;SDS011;14024;52.226;5.200;2023-07-31T04:31:51;42.42;;;11.35;;
26319;SDS011;14024;52.226;5.200;2023-07-31T04:34:17;33.47;;;10.40;;
26319;SDS011;14024;52.226;5.200;2023-07-31T04:36:43;39.17;;;9.60;;
26319;SDS011;14024;52.226;5.200;2023-07-31T04:39:09;32.97;;;8.93;;
26319;SDS011;14024;52.226;5.200;2023-07-31T04:41:35;31.63;;;9.77;;
26319;SDS011;14024;52.226;5.200;2023-07-31T04:44:01;34.35;;;10.75;;
26319;SDS011;14024;52.226;5.200;2023-07-31T04:46:28;38.88;;;10.40;;
26319;SDS011;14024;52.226;5.200;2023-07-31T04:48:54;36.65;;;10.25;;
26319;SDS011;14024;52.226;5.200;2023-07-31T04:51:20;24.80;;;9.00;;
26319;SDS011;14024;52.226;5.200;2023-07-31T04:53:48;26.63;;;8.98;;
26319;SDS011;14024;52.226;5.200;2023-07-31T04:56:14;26.30;;;9.85;;
26319;SDS011;14024;52.226;5.200;2023-07-31T04:58:40;26.23;;;8.73;;
26319;SDS011;14024;52.226;5.200;2023-07-31T05:01:06;27.42;;;9.05;;
26319;SDS011;14024;52.226;5.200;2023-07-31T05:03:32;24.38;;;8.13;;
26319;SDS011;14024;52.226;5.200;2023-07-31T05:05:58;22.33;;;9.15;;
26319;SDS011;14024;52.226;5.200;2023-07-31T05:08:24;27.42;;;8.90;;
26319;SDS011;14024;52.226;5.200;2023-07-31T05:10:50;21.73;;;7.97;;
26319;SDS011;14024;52.226;5.200;2023-07-31T05:13:16;21.40;;;7.90;;
26319;SDS011;14024;52.226;5.200;2023-07-31T05:15:42;22.45;;;8.82;;
26319;SDS011;14024;52.226;5.200;2023-07-31T05:18:08;24.92;;;8.20;;
26319;SDS011;14024;52.226;5.200;2023-07-31T05:20:34;18.00;;;7.28;;
26319;SDS011;14024;52.226;5.200;2023-07-31T05:23:00;21.65;;;8.23;;
26319;SDS011;14024;52.226;5.200;2023-07-31T05:25:26;17.65;;;7.85;;
26319;SDS011;14024;52.226;5.200;2023-07-31T05:27:52;16.27;;;7.07;;
26319;SDS011;14024;52.226;5.200;2023-07-31T05:30:18;16.95;;;7.65;;
26319;SDS011;14024;52.226;5.200;2023-07-31T05:32:44;16.15;;;7.05;;
26319;SDS011;14024;52.226;5.200;2023-07-31T05:35:10;18.88;;;7.25;;
26319;SDS011;14024;52.226;5.200;2023-07-31T05:37:36;16.20;;;7.05;;
26319;SDS011;14024;52.226;5.200;2023-07-31T05:40:02;15.30;;;6.18;;
26319;SDS011;14024;52.226;5.200;2023-07-31T05:42:29;15.05;;;5.63;;
26319;SDS011;14024;52.226;5.200;2023-07-31T05:44:55;15.88;;;6.60;;
26319;SDS011;14024;52.226;5.200;2023-07-31T05:47:21;17.38;;;5.55;;
26319;SDS011;14024;52.226;5.200;2023-07-31T05:49:47;12.35;;;6.18;;
26319;SDS011;14024;52.226;5.200;2023-07-31T05:52:14;15.85;;;5.82;;
26319;SDS011;14024;52.226;5.200;2023-07-31T05:54:41;12.20;;;5.60;;
26319;SDS011;14024;52.226;5.200;2023-07-31T05:57:07;10.40;;;5.07;;
26319;SDS011;14024;52.226;5.200;2023-07-31T05:59:33;12.45;;;5.68;;
26319;SDS011;14024;52.226;5.200;2023-07-31T06:01:59;14.90;;;5.55;;
26319;SDS011;14024;52.226;5.200;2023-07-31T06:04:25;15.77;;;5.20;;
26319;SDS011;14024;52.226;5.200;2023-07-31T06:06:51;13.05;;;6.32;;
26319;SDS011;14024;52.226;5.200;2023-07-31T06:09:17;14.68;;;5.50;;
26319;SDS011;14024;52.226;5.200;2023-07-31T06:11:43;16.15;;;5.72;;
26319;SDS011;14024;52.226;5.200;2023-07-31T06:14:09;17.38;;;5.93;;
26319;SDS011;14024;52.226;5.200;2023-07-31T06:16:35;13.15;;;5.97;;
26319;SDS011;14024;52.226;5.200;2023-07-31T06:19:01;18.17;;;5.82;;
26319;SDS011;14024;52.226;5.200;2023-07-31T06:21:27;11.77;;;5.22;;
26319;SDS011;14024;52.226;5.200;2023-07-31T06:23:54;11.20;;;5.45;;
26319;SDS011;14024;52.226;5.200;2023-07-31T06:26:20;14.20;;;5.60;;
26319;SDS011;14024;52.226;5.200;2023-07-31T06:28:46;11.70;;;5.57;;
26319;SDS011;14024;52.226;5.200;2023-07-31T06:31:12;13.10;;;5.07;;
26319;SDS011;14024;52.226;5.200;2023-07-31T06:33:38;14.65;;;6.53;;
26319;SDS011;14024;52.226;5.200;2023-07-31T06:36:04;12.77;;;5.05;;
26319;SDS011;14024;52.226;5.200;2023-07-31T06:38:30;13.57;;;5.10;;
26319;SDS011;14024;52.226;5.200;2023-07-31T06:40:56;10.82;;;4.82;;
26319;SDS011;14024;52.226;5.200;2023-07-31T06:43:22;15.25;;;4.82;;
26319;SDS011;14024;52.226;5.200;2023-07-31T06:45:48;12.35;;;5.45;;
26319;SDS011;14024;52.226;5.200;2023-07-31T06:48:16;9.65;;;5.03;;
26319;SDS011;14024;52.226;5.200;2023-07-31T06:50:42;7.85;;;4.05;;
26319;SDS011;14024;52.226;5.200;2023-07-31T06:53:08;12.75;;;4.10;;
26319;SDS011;14024;52.226;5.200;2023-07-31T06:55:34;8.60;;;4.82;;
26319;SDS011;14024;52.226;5.200;2023-07-31T06:58:00;9.10;;;3.90;;
26319;SDS011;14024;52.226;5.200;2023-07-31T07:00:26;8.20;;;3.88;;
26319;SDS011;14024;52.226;5.200;2023-07-31T07:02:52;9.43;;;3.92;;
26319;SDS011;14024;52.226;5.200;2023-07-31T07:05:18;7.20;;;4.03;;
26319;SDS011;14024;52.226;5.200;2023-07-31T07:07:44;7.57;;;3.90;;
26319;SDS011;14024;52.226;5.200;2023-07-31T07:10:10;8.15;;;4.07;;
26319;SDS011;14024;52.226;5.200;2023-07-31T07:12:36;8.95;;;4.13;;
26319;SDS011;14024;52.226;5.200;2023-07-31T07:15:03;8.25;;;4.20;;
26319;SDS011;14024;52.226;5.200;2023-07-31T07:17:29;8.85;;;4.22;;
26319;SDS011;14024;52.226;5.200;2023-07-31T07:19:59;9.93;;;4.30;;
26319;SDS011;14024;52.226;5.200;2023-07-31T07:22:25;6.90;;;4.00;;
26319;SDS011;14024;52.226;5.200;2023-07-31T07:24:52;7.25;;;4.07;;
26319;SDS011;14024;52.226;5.200;2023-07-31T07:27:18;6.97;;;3.55;;
26319;SDS011;14024;52.226;5.200;2023-07-31T07:29:45;8.10;;;4.03;;
26319;SDS011;14024;52.226;5.200;2023-07-31T07:32:11;9.38;;;3.58;;
26319;SDS011;14024;52.226;5.200;2023-07-31T07:34:37;4.55;;;2.88;;
26319;SDS011;14024;52.226;5.200;2023-07-31T07:37:03;8.25;;;2.85;;
26319;SDS011;14024;52.226;5.200;2023-07-31T07:39:29;7.97;;;3.08;;
26319;SDS011;14024;52.226;5.200;2023-07-31T07:41:55;5.28;;;2.55;;
26319;SDS011;14024;52.226;5.200;2023-07-31T07:44:21;7.55;;;2.70;;
26319;SDS011;14024;52.226;5.200;2023-07-31T07:46:47;4.63;;;2.50;;
26319;SDS011;14024;52.226;5.200;2023-07-31T07:49:13;4.88;;;2.78;;
26319;SDS011;14024;52.226;5.200;2023-07-31T07:51:39;5.97;;;2.45;;
26319;SDS011;14024;52.226;5.200;2023-07-31T07:54:05;3.83;;;2.45;;
26319;SDS011;14024;52.226;5.200;2023-07-31T07:56:31;4.93;;;2.47;;
26319;SDS011;14024;52.226;5.200;2023-07-31T07:58:57;5.97;;;2.15;;
26319;SDS011;14024;52.226;5.200;2023-07-31T08:01:23;5.45;;;2.63;;
26319;SDS011;14024;52.226;5.200;2023-07-31T08:03:49;6.93;;;2.88;;
26319;SDS011;14024;52.226;5.200;2023-07-31T08:06:15;4.72;;;2.35;;
26319;SDS011;14024;52.226;5.200;2023-07-31T08:08:41;3.42;;;2.35;;
26319;SDS011;14024;52.226;5.200;2023-07-31T08:11:07;3.45;;;2.40;;
26319;SDS011;14024;52.226;5.200;2023-07-31T08:13:33;4.22;;;2.50;;
26319;SDS011;14024;52.226;5.200;2023-07-31T08:16:01;2.67;;;2.17;;
26319;SDS011;14024;52.226;5.200;2023-07-31T08:18:27;4.65;;;2.33;;
26319;SDS011;14024;52.226;5.200;2023-07-31T08:20:53;4.15;;;2.10;;
26319;SDS011;14024;52.226;5.200;2023-07-31T08:23:19;4.80;;;2.22;;
26319;SDS011;14024;52.226;5.200;2023-07-31T08:25:45;3.05;;;2.00;;
26319;SDS011;14024;52.226;5.200;2023-07-31T08:28:11;2.42;;;1.90;;
26319;SDS011;14024;52.226;5.200;2023-07-31T08:30:37;2.85;;;2.00;;
26319;SDS011;14024;52.226;5.200;2023-07-31T08:33:03;2.90;;;1.90;;
26319;SDS011;14024;52.226;5.200;2023-07-31T08:35:29;3.15;;;1.98;;
26319;SDS011;14024;52.226;5.200;2023-07-31T08:37:55;2.85;;;2.22;;
26319;SDS011;14024;52.226;5.200;2023-07-31T08:40:21;4.93;;;2.10;;
26319;SDS011;14024;52.226;5.200;2023-07-31T08:42:48;4.05;;;2.20;;
26319;SDS011;14024;52.226;5.200;2023-07-31T08:45:15;2.80;;;2.40;;
26319;SDS011;14024;52.226;5.200;2023-07-31T08:47:46;2.55;;;2.10;;
26319;SDS011;14024;52.226;5.200;2023-07-31T08:50:16;4.50;;;2.25;;
26319;SDS011;14024;52.226;5.200;2023-07-31T08:52:42;2.92;;;2.15;;
26319;SDS011;14024;52.226;5.200;2023-07-31T08:55:08;4.28;;;1.92;;
26319;SDS011;14024;52.226;5.200;2023-07-31T08:57:35;3.85;;;1.92;;
26319;SDS011;14024;52.226;5.200;2023-07-31T09:00:02;2.20;;;1.85;;
26319;SDS011;14024;52.226;5.200;2023-07-31T09:02:30;1.70;;;1.60;;
26319;SDS011;14024;52.226;5.200;2023-07-31T09:04:57;2.80;;;1.80;;
26319;SDS011;14024;52.226;5.200;2023-07-31T09:07:23;2.03;;;1.60;;
26319;SDS011;14024;52.226;5.200;2023-07-31T09:09:50;4.88;;;1.80;;
26319;SDS011;14024;52.226;5.200;2023-07-31T09:12:17;2.17;;;1.77;;
26319;SDS011;14024;52.226;5.200;2023-07-31T09:14:44;2.00;;;1.80;;
26319;SDS011;14024;52.226;5.200;2023-07-31T09:17:11;1.98;;;1.65;;
26319;SDS011;14024;52.226;5.200;2023-07-31T09:19:37;2.33;;;1.90;;
26319;SDS011;14024;52.226;5.200;2023-07-31T09:22:03;2.95;;;1.98;;
26319;SDS011;14024;52.226;5.200;2023-07-31T09:24:31;3.05;;;2.17;;
26319;SDS011;14024;52.226;5.200;2023-07-31T09:26:57;2.63;;;1.90;;
26319;SDS011;14024;52.226;5.200;2023-07-31T09:29:24;1.77;;;1.50;;
26319;SDS011;14024;52.226;5.200;2023-07-31T09:31:51;3.88;;;1.70;;
26319;SDS011;14024;52.226;5.200;2023-07-31T09:34:17;2.15;;;1.52;;
26319;SDS011;14024;52.226;5.200;2023-07-31T09:36:45;1.95;;;1.75;;
26319;SDS011;14024;52.226;5.200;2023-07-31T09:39:11;2.03;;;1.70;;
26319;SDS011;14024;52.226;5.200;2023-07-31T09:41:42;2.17;;;1.90;;
26319;SDS011;14024;52.226;5.200;2023-07-31T09:44:08;1.98;;;1.52;;
26319;SDS011;14024;52.226;5.200;2023-07-31T09:46:35;2.08;;;1.45;;
26319;SDS011;14024;52.226;5.200;2023-07-31T09:49:09;2.15;;;1.60;;
26319;SDS011;14024;52.226;5.200;2023-07-31T09:51:38;2.15;;;1.83;;
26319;SDS011;14024;52.226;5.200;2023-07-31T09:54:15;1.80;;;1.60;;
26319;SDS011;14024;52.226;5.200;2023-07-31T09:56:50;1.70;;;1.60;;
26319;SDS011;14024;52.226;5.200;2023-07-31T09:59:17;4.18;;;1.98;;
26319;SDS011;14024;52.226;5.200;2023-07-31T10:01:43;2.38;;;1.67;;
26319;SDS011;14024;52.226;5.200;2023-07-31T10:04:11;5.20;;;2.20;;
26319;SDS011;14024;52.226;5.200;2023-07-31T10:06:38;3.70;;;2.15;;
26319;SDS011;14024;52.226;5.200;2023-07-31T10:09:09;3.75;;;2.08;;
26319;SDS011;14024;52.226;5.200;2023-07-31T10:11:59;3.85;;;2.75;;
26319;SDS011;14024;52.226;5.200;2023-07-31T10:14:22;6.85;;;2.55;;
26319;SDS011;14024;52.226;5.200;2023-07-31T10:16:49;8.73;;;3.13;;
26319;SDS011;14024;52.226;5.200;2023-07-31T10:19:16;7.30;;;3.70;;
26319;SDS011;14024;52.226;5.200;2023-07-31T10:21:42;4.65;;;3.20;;
26319;SDS011;14024;52.226;5.200;2023-07-31T10:24:08;4.63;;;3.28;;
26319;SDS011;14024;52.226;5.200;2023-07-31T10:26:34;4.85;;;3.47;;
26319;SDS011;14024;52.226;5.200;2023-07-31T10:29:01;4.22;;;2.95;;
26319;SDS011;14024;52.226;5.200;2023-07-31T10:31:28;6.47;;;3.70;;
26319;SDS011;14024;52.226;5.200;2023-07-31T10:33:54;4.45;;;3.67;;
26319;SDS011;14024;52.226;5.200;2023-07-31T10:36:21;7.38;;;4.07;;
26319;SDS011;14024;52.226;5.200;2023-07-31T10:38:50;7.93;;;3.83;;
26319;SDS011;14024;52.226;5.200;2023-07-31T10:41:16;12.63;;;4.07;;
26319;SDS011;14024;52.226;5.200;2023-07-31T10:43:43;5.30;;;3.45;;
26319;SDS011;14024;52.226;5.200;2023-07-31T10:46:11;6.85;;;4.57;;
26319;SDS011;14024;52.226;5.200;2023-07-31T10:48:38;4.43;;;3.20;;
26319;SDS011;14024;52.226;5.200;2023-07-31T10:51:07;6.18;;;3.40;;
26319;SDS011;14024;52.226;5.200;2023-07-31T10:53:35;4.55;;;3.60;;
26319;SDS011;14024;52.226;5.200;2023-07-31T10:56:05;4.65;;;3.30;;
26319;SDS011;14024;52.226;5.200;2023-07-31T10:58:31;5.57;;;3.35;;
26319;SDS011;14024;52.226;5.200;2023-07-31T11:00:58;7.07;;;3.72;;
26319;SDS011;14024;52.226;5.200;2023-07-31T11:03:26;10.25;;;4.05;;
26319;SDS011;14024;52.226;5.200;2023-07-31T11:05:53;5.28;;;3.60;;
26319;SDS011;14024;52.226;5.200;2023-07-31T11:08:20;6.25;;;4.20;;
26319;SDS011;14024;52.226;5.200;2023-07-31T11:10:48;7.57;;;4.57;;
26319;SDS011;14024;52.226;5.200;2023-07-31T11:13:14;10.73;;;4.60;;
26319;SDS011;14024;52.226;5.200;2023-07-31T11:15:40;10.40;;;4.75;;
26319;SDS011;14024;52.226;5.200;2023-07-31T11:18:06;9.77;;;6.13;;
26319;SDS011;14024;52.226;5.200;2023-07-31T11:20:35;15.57;;;5.50;;
26319;SDS011;14024;52.226;5.200;2023-07-31T11:23:02;9.90;;;5.07;;
26319;SDS011;14024;52.226;5.200;2023-07-31T11:25:32;10.43;;;5.07;;
26319;SDS011;14024;52.226;5.200;2023-07-31T11:28:08;15.88;;;5.00;;
26319;SDS011;14024;52.226;5.200;2023-07-31T11:30:34;8.93;;;4.45;;
26319;SDS011;14024;52.226;5.200;2023-07-31T11:33:01;12.60;;;5.72;;
26319;SDS011;14024;52.226;5.200;2023-07-31T11:35:28;10.98;;;5.38;;
26319;SDS011;14024;52.226;5.200;2023-07-31T11:37:54;13.60;;;4.93;;
26319;SDS011;14024;52.226;5.200;2023-07-31T11:40:20;9.80;;;4.70;;
26319;SDS011;14024;52.226;5.200;2023-07-31T11:42:46;10.10;;;4.28;;
26319;SDS011;14024;52.226;5.200;2023-07-31T11:45:12;19.35;;;5.05;;
26319;SDS011;14024;52.226;5.200;2023-07-31T11:47:39;9.38;;;4.35;;
26319;SDS011;14024;52.226;5.200;2023-07-31T11:50:05;12.77;;;4.45;;
26319;SDS011;14024;52.226;5.200;2023-07-31T11:52:37;13.25;;;4.60;;
26319;SDS011;14024;52.226;5.200;2023-07-31T11:55:04;11.00;;;4.90;;
26319;SDS011;14024;52.226;5.200;2023-07-31T11:57:31;11.70;;;5.03;;
26319;SDS011;14024;52.226;5.200;2023-07-31T11:59:58;7.88;;;4.20;;
26319;SDS011;14024;52.226;5.200;2023-07-31T12:02:24;16.25;;;5.00;;
26319;SDS011;14024;52.226;5.200;2023-07-31T12:04:50;13.48;;;4.90;;
26319;SDS011;14024;52.226;5.200;2023-07-31T12:07:16;11.60;;;5.45;;
26319;SDS011;14024;52.226;5.200;2023-07-31T12:09:54;8.60;;;4.50;;
26319;SDS011;14024;52.226;5.200;2023-07-31T12:12:21;10.18;;;4.60;;
26319;SDS011;14024;52.226;5.200;2023-07-31T12:14:47;11.60;;;4.57;;
26319;SDS011;14024;52.226;5.200;2023-07-31T12:17:15;10.35;;;4.70;;
26319;SDS011;14024;52.226;5.200;2023-07-31T12:19:41;7.70;;;4.88;;
26319;SDS011;14024;52.226;5.200;2023-07-31T12:22:14;12.45;;;5.13;;
26319;SDS011;14024;52.226;5.200;2023-07-31T12:24:41;13.70;;;5.38;;
26319;SDS011;14024;52.226;5.200;2023-07-31T12:27:12;8.52;;;4.53;;
26319;SDS011;14024;52.226;5.200;2023-07-31T12:29:39;9.88;;;4.80;;
26319;SDS011;14024;52.226;5.200;2023-07-31T12:32:21;16.88;;;4.97;;
26319;SDS011;14024;52.226;5.200;2023-07-31T12:34:48;13.95;;;5.15;;
26319;SDS011;14024;52.226;5.200;2023-07-31T12:37:14;9.88;;;5.43;;
26319;SDS011;14024;52.226;5.200;2023-07-31T12:39:40;14.10;;;5.93;;
26319;SDS011;14024;52.226;5.200;2023-07-31T12:42:06;9.68;;;5.72;;
26319;SDS011;14024;52.226;5.200;2023-07-31T12:44:32;9.10;;;5.65;;
26319;SDS011;14024;52.226;5.200;2023-07-31T12:46:58;15.88;;;6.70;;
26319;SDS011;14024;52.226;5.200;2023-07-31T12:49:24;10.00;;;5.97;;
26319;SDS011;14024;52.226;5.200;2023-07-31T12:51:50;13.15;;;6.05;;
26319;SDS011;14024;52.226;5.200;2023-07-31T12:54:16;12.00;;;5.28;;
26319;SDS011;14024;52.226;5.200;2023-07-31T12:56:44;12.07;;;6.20;;
26319;SDS011;14024;52.226;5.200;2023-07-31T12:59:10;13.70;;;7.55;;
26319;SDS011;14024;52.226;5.200;2023-07-31T13:01:36;13.93;;;7.22;;
26319;SDS011;14024;52.226;5.200;2023-07-31T13:04:02;15.05;;;7.93;;
26319;SDS011;14024;52.226;5.200;2023-07-31T13:06:28;13.02;;;7.80;;
26319;SDS011;14024;52.226;5.200;2023-07-31T13:08:54;11.77;;;6.82;;
26319;SDS011;14024;52.226;5.200;2023-07-31T13:11:20;13.05;;;6.15;;
26319;SDS011;14024;52.226;5.200;2023-07-31T13:13:47;12.70;;;6.55;;
26319;SDS011;14024;52.226;5.200;2023-07-31T13:16:13;10.07;;;6.65;;
26319;SDS011;14024;52.226;5.200;2023-07-31T13:18:39;17.10;;;6.68;;
26319;SDS011;14024;52.226;5.200;2023-07-31T13:21:05;10.73;;;6.38;;
26319;SDS011;14024;52.226;5.200;2023-07-31T13:23:31;12.32;;;7.18;;
26319;SDS011;14024;52.226;5.200;2023-07-31T13:25:57;9.95;;;6.93;;
26319;SDS011;14024;52.226;5.200;2023-07-31T13:28:23;9.85;;;6.60;;
26319;SDS011;14024;52.226;5.200;2023-07-31T13:30:49;10.70;;;6.10;;
26319;SDS011;14024;52.226;5.200;2023-07-31T13:33:15;13.20;;;6.32;;
26319;SDS011;14024;52.226;5.200;2023-07-31T13:35:41;13.15;;;6.28;;
26319;SDS011;14024;52.226;5.200;2023-07-31T13:38:07;8.07;;;5.20;;
26319;SDS011;14024;52.226;5.200;2023-07-31T13:40:34;7.93;;;5.18;;
26319;SDS011;14024;52.226;5.200;2023-07-31T13:43:00;9.80;;;5.88;;
26319;SDS011;14024;52.226;5.200;2023-07-31T13:45:26;8.57;;;5.90;;
26319;SDS011;14024;52.226;5.200;2023-07-31T13:47:52;10.68;;;6.22;;
26319;SDS011;14024;52.226;5.200;2023-07-31T13:50:18;7.35;;;5.57;;
26319;SDS011;14024;52.226;5.200;2023-07-31T13:52:46;10.07;;;6.07;;
26319;SDS011;14024;52.226;5.200;2023-07-31T13:55:12;13.05;;;4.93;;
26319;SDS011;14024;52.226;5.200;2023-07-31T13:57:38;6.82;;;4.22;;
26319;SDS011;14024;52.226;5.200;2023-07-31T14:00:04;5.75;;;3.92;;
26319;SDS011;14024;52.226;5.200;2023-07-31T14:02:30;5.55;;;3.80;;
26319;SDS011;14024;52.226;5.200;2023-07-31T14:04:56;11.95;;;4.25;;
26319;SDS011;14024;52.226;5.200;2023-07-31T14:07:22;7.00;;;4.53;;
26319;SDS011;14024;52.226;5.200;2023-07-31T14:09:48;10.10;;;4.95;;
26319;SDS011;14024;52.226;5.200;2023-07-31T14:12:14;8.63;;;5.30;;
26319;SDS011;14024;52.226;5.200;2023-07-31T14:14:40;9.20;;;4.55;;
26319;SDS011;14024;52.226;5.200;2023-07-31T14:17:06;8.43;;;4.85;;
26319;SDS011;14024;52.226;5.200;2023-07-31T14:19:32;5.18;;;4.00;;
26319;SDS011;14024;52.226;5.200;2023-07-31T14:21:58;5.22;;;3.67;;
26319;SDS011;14024;52.226;5.200;2023-07-31T14:24:24;8.27;;;4.45;;
26319;SDS011;14024;52.226;5.200;2023-07-31T14:26:50;6.50;;;4.15;;
26319;SDS011;14024;52.226;5.200;2023-07-31T14:29:16;5.40;;;4.20;;
26319;SDS011;14024;52.226;5.200;2023-07-31T14:31:43;9.15;;;4.43;;
26319;SDS011;14024;52.226;5.200;2023-07-31T14:34:09;7.15;;;4.18;;
26319;SDS011;14024;52.226;5.200;2023-07-31T14:36:35;7.03;;;4.25;;
26319;SDS011;14024;52.226;5.200;2023-07-31T14:39:01;5.72;;;4.50;;
26319;SDS011;14024;52.226;5.200;2023-07-31T14:41:27;5.03;;;3.42;;